createdAt,value
2023-04-18T00:00:12.597Z,31.84
2023-04-18T00:01:17.372Z,31.79
2023-04-18T00:02:20.802Z,31.76
2023-04-18T00:03:25.194Z,31.67
2023-04-18T00:04:28.089Z,31.71
2023-04-18T00:05:31.970Z,31.61
2023-04-18T00:06:36.199Z,31.80
2023-04-18T00:07:40.276Z,31.69
2023-04-18T00:08:43.082Z,31.54
2023-04-18T00:09:46.811Z,31.51
2023-04-18T00:10:49.650Z,31.77
2023-04-18T00:11:53.650Z,31.95
2023-04-18T00:12:56.356Z,31.81
2023-04-18T00:14:00.300Z,31.97
2023-04-18T00:15:03.374Z,31.97
2023-04-18T00:16:09.614Z,32.11
2023-04-18T00:17:14.791Z,32.06
2023-04-18T00:18:18.465Z,31.89
2023-04-18T00:19:20.804Z,32.22
2023-04-18T00:20:26.781Z,31.84
2023-04-18T00:21:30.325Z,32.10
2023-04-18T00:22:34.400Z,32.04
2023-04-18T00:23:37.414Z,32.02
2023-04-18T00:24:42.240Z,31.60
2023-04-18T00:25:44.942Z,32.14
2023-04-18T00:26:49.137Z,31.97
2023-04-18T00:27:52.003Z,32.07
2023-04-18T00:28:55.721Z,32.01
2023-04-18T00:29:58.386Z,32.08
2023-04-18T00:31:02.182Z,32.08
2023-04-18T00:32:04.902Z,31.87
2023-04-18T00:33:11.610Z,31.95
2023-04-18T00:34:14.603Z,32.32
2023-04-18T00:35:20.330Z,32.58
2023-04-18T00:36:23.073Z,32.49
2023-04-18T00:37:26.696Z,32.33
2023-04-18T00:38:29.023Z,32.51
2023-04-18T00:39:32.853Z,32.40
2023-04-18T00:40:35.673Z,32.31
2023-04-18T00:41:39.460Z,32.26
2023-04-18T00:42:42.073Z,32.71
2023-04-18T00:43:45.867Z,32.56
2023-04-18T00:44:48.614Z,32.45
2023-04-18T00:45:52.575Z,32.60
2023-04-18T00:46:55.207Z,32.42
2023-04-18T00:47:59.315Z,32.40
2023-04-18T00:49:04.737Z,32.46
2023-04-18T00:50:09.881Z,32.55
2023-04-18T00:51:13.090Z,32.80
2023-04-18T00:52:18.647Z,32.92
2023-04-18T00:53:21.885Z,32.82
2023-04-18T00:54:28.064Z,32.83
2023-04-18T00:55:30.961Z,33.02
2023-04-18T00:56:35.338Z,33.11
2023-04-18T00:57:38.019Z,33.24
2023-04-18T00:58:41.829Z,33.33
2023-04-18T00:59:44.745Z,33.13
2023-04-18T01:00:48.497Z,33.35
2023-04-18T01:01:51.153Z,32.93
2023-04-18T01:02:56.006Z,33.17
2023-04-18T01:03:58.909Z,33.04
2023-04-18T01:05:04.502Z,33.00
2023-04-18T01:06:07.546Z,33.22
2023-04-18T01:07:11.549Z,33.01
2023-04-18T01:08:14.696Z,33.21
2023-04-18T01:09:18.507Z,32.87
2023-04-18T01:10:21.330Z,33.10
2023-04-18T01:11:24.889Z,33.05
2023-04-18T01:12:27.239Z,33.25
2023-04-18T01:13:30.933Z,33.19
2023-04-18T01:14:33.624Z,33.09
2023-04-18T01:15:37.291Z,33.18
2023-04-18T01:16:40.211Z,33.31
2023-04-18T01:17:43.959Z,33.31
2023-04-18T01:18:46.651Z,33.36
2023-04-18T01:19:51.280Z,33.77
2023-04-18T01:20:57.463Z,33.59
2023-04-18T01:22:01.195Z,33.61
2023-04-18T01:23:04.375Z,33.26
2023-04-18T01:24:13.691Z,33.67
2023-04-18T01:25:16.495Z,33.17
2023-04-18T01:26:21.356Z,33.23
2023-04-18T01:27:24.171Z,33.41
2023-04-18T01:28:27.969Z,33.42
2023-04-18T01:29:30.650Z,33.50
2023-04-18T01:30:34.722Z,33.37
2023-04-18T01:31:38.707Z,33.38
2023-04-18T01:32:42.661Z,33.40
2023-04-18T01:33:45.420Z,33.39
2023-04-18T01:34:49.074Z,33.66
2023-04-18T01:35:52.123Z,33.47
2023-04-18T01:36:55.794Z,33.52
2023-04-18T01:37:59.062Z,33.33
2023-04-18T01:39:02.965Z,33.48
2023-04-18T01:40:08.797Z,33.54
2023-04-18T01:41:12.518Z,33.42
2023-04-18T01:42:15.207Z,33.56
2023-04-18T01:43:18.756Z,33.56
2023-04-18T01:44:21.543Z,33.61
2023-04-18T01:45:25.207Z,33.65
2023-04-18T01:46:28.099Z,33.58
2023-04-18T01:47:31.868Z,33.29
2023-04-18T01:48:34.512Z,33.62
2023-04-18T01:49:38.071Z,33.71
2023-04-18T01:50:40.881Z,33.24
2023-04-18T01:51:44.500Z,33.32
2023-04-18T01:52:47.561Z,33.36
2023-04-18T01:53:51.551Z,33.56
2023-04-18T01:54:54.197Z,33.06
2023-04-18T01:55:59.659Z,33.24
2023-04-18T01:57:02.248Z,33.37
2023-04-18T01:58:05.937Z,33.25
2023-04-18T01:59:08.615Z,33.23
2023-04-18T02:00:13.563Z,33.26
2023-04-18T02:01:16.263Z,33.36
2023-04-18T02:02:20.138Z,33.10
2023-04-18T02:03:23.279Z,32.95
2023-04-18T02:04:26.960Z,32.90
2023-04-18T02:05:29.275Z,32.81
2023-04-18T02:06:32.890Z,32.78
2023-04-18T02:07:35.279Z,32.80
2023-04-18T02:08:39.070Z,32.91
2023-04-18T02:09:41.741Z,32.53
2023-04-18T02:10:45.446Z,32.60
2023-04-18T02:11:49.652Z,32.61
2023-04-18T02:12:53.313Z,32.59
2023-04-18T02:13:56.383Z,32.31
2023-04-18T02:15:00.151Z,32.66
2023-04-18T02:16:03.003Z,32.90
2023-04-18T02:17:06.661Z,33.08
2023-04-18T02:18:10.218Z,32.65
2023-04-18T02:19:13.933Z,32.76
2023-04-18T02:20:16.697Z,33.05
2023-04-18T02:21:22.068Z,33.13
2023-04-18T02:22:24.838Z,32.76
2023-04-18T02:23:28.935Z,32.92
2023-04-18T02:24:31.605Z,33.34
2023-04-18T02:25:35.215Z,33.23
2023-04-18T02:26:37.515Z,33.05
2023-04-18T02:27:42.597Z,33.12
2023-04-18T02:28:45.340Z,33.16
2023-04-18T02:29:49.018Z,33.31
2023-04-18T02:30:51.851Z,33.37
2023-04-18T02:31:55.610Z,33.26
2023-04-18T02:32:58.296Z,33.49
2023-04-18T02:34:01.969Z,33.08
2023-04-18T02:35:04.646Z,33.40
2023-04-18T02:36:08.896Z,33.42
2023-04-18T02:37:11.690Z,33.42
2023-04-18T02:38:15.270Z,33.20
2023-04-18T02:39:18.155Z,33.50
2023-04-18T02:40:22.203Z,33.14
2023-04-18T02:41:24.955Z,32.83
2023-04-18T02:42:28.704Z,32.87
2023-04-18T02:43:33.469Z,32.73
2023-04-18T02:44:37.084Z,33.16
2023-04-18T02:45:39.725Z,32.83
2023-04-18T02:46:43.376Z,32.79
2023-04-18T02:47:54.735Z,33.14
2023-04-18T02:48:59.417Z,33.11
2023-04-18T02:50:02.138Z,33.23
2023-04-18T02:51:06.632Z,33.41
2023-04-18T02:52:09.320Z,33.30
2023-04-18T02:53:13.076Z,33.15
2023-04-18T02:54:15.951Z,33.04
2023-04-18T02:55:20.236Z,32.72
2023-04-18T02:56:25.038Z,32.66
2023-04-18T02:57:27.583Z,32.56
2023-04-18T02:58:31.298Z,32.68
2023-04-18T02:59:35.241Z,32.36
2023-04-18T03:00:39.108Z,32.37
2023-04-18T03:01:41.409Z,32.62
2023-04-18T03:02:45.310Z,32.53
2023-04-18T03:03:47.930Z,32.60
2023-04-18T03:04:51.554Z,32.48
2023-04-18T03:05:55.268Z,32.12
2023-04-18T03:06:59.429Z,32.03
2023-04-18T03:08:03.329Z,32.14
2023-04-18T03:09:05.927Z,32.38
2023-04-18T03:10:10.220Z,32.63
2023-04-18T03:11:12.704Z,32.49
2023-04-18T03:12:16.626Z,32.30
2023-04-18T03:13:19.135Z,32.00
2023-04-18T03:14:22.923Z,32.30
2023-04-18T03:15:26.794Z,32.05
2023-04-18T03:16:31.256Z,32.23
2023-04-18T03:17:34.358Z,31.99
2023-04-18T03:18:38.020Z,32.03
2023-04-18T03:19:40.757Z,32.10
2023-04-18T03:20:44.414Z,32.11
2023-04-18T03:21:47.008Z,32.33
2023-04-18T03:22:50.656Z,32.37
2023-04-18T03:23:53.711Z,32.20
2023-04-18T03:24:57.451Z,32.30
2023-04-18T03:26:00.170Z,32.38
2023-04-18T03:27:03.778Z,32.34
2023-04-18T03:28:06.812Z,32.19
2023-04-18T03:29:10.602Z,32.30
2023-04-18T03:30:13.609Z,32.28
2023-04-18T03:31:18.741Z,32.32
2023-04-18T03:32:22.577Z,32.12
2023-04-18T03:33:26.372Z,32.39
2023-04-18T03:34:29.773Z,32.36
2023-04-18T03:35:33.487Z,32.34
2023-04-18T03:36:37.301Z,32.46
2023-04-18T03:37:39.539Z,32.58
2023-04-18T03:38:43.536Z,32.61
2023-04-18T03:39:46.297Z,32.52
2023-04-18T03:40:50.158Z,32.77
2023-04-18T03:41:52.833Z,32.67
2023-04-18T03:42:56.417Z,32.79
2023-04-18T03:43:58.805Z,32.66
2023-04-18T03:45:02.391Z,32.96
2023-04-18T03:46:07.673Z,32.51
2023-04-18T03:47:14.766Z,32.56
2023-04-18T03:48:17.447Z,32.21
2023-04-18T03:49:21.342Z,32.65
2023-04-18T03:50:25.879Z,32.35
2023-04-18T03:51:31.573Z,32.44
2023-04-18T03:52:34.183Z,32.28
2023-04-18T03:53:37.936Z,32.58
2023-04-18T03:54:40.769Z,32.22
2023-04-18T03:55:45.105Z,32.43
2023-04-18T03:56:47.867Z,32.21
2023-04-18T03:57:51.759Z,32.10
2023-04-18T03:58:54.477Z,32.04
2023-04-18T03:59:58.229Z,32.10
2023-04-18T04:01:01.459Z,32.05
2023-04-18T04:02:05.361Z,32.21
2023-04-18T04:03:09.760Z,31.98
2023-04-18T04:04:15.817Z,31.99
2023-04-18T04:05:18.844Z,31.94
2023-04-18T04:06:22.489Z,31.99
2023-04-18T04:07:24.826Z,32.30
2023-04-18T04:08:28.445Z,32.03
2023-04-18T04:09:30.799Z,31.55
2023-04-18T04:10:34.688Z,31.61
2023-04-18T04:11:37.454Z,31.67
2023-04-18T04:12:41.170Z,31.84
2023-04-18T04:13:43.849Z,31.61
2023-04-18T04:14:47.536Z,31.64
2023-04-18T04:15:51.392Z,31.70
2023-04-18T04:16:55.063Z,31.97
2023-04-18T04:17:57.793Z,31.52
2023-04-18T04:19:03.034Z,31.98
2023-04-18T04:20:06.795Z,31.45
2023-04-18T04:21:10.177Z,31.39
2023-04-18T04:22:12.780Z,31.14
2023-04-18T04:23:16.593Z,30.59
2023-04-18T04:24:20.714Z,30.80
2023-04-18T04:25:25.110Z,30.50
2023-04-18T04:26:27.920Z,30.69
2023-04-18T04:27:31.668Z,30.19
2023-04-18T04:28:33.973Z,30.37
2023-04-18T04:29:38.909Z,30.12
2023-04-18T04:30:41.911Z,30.38
2023-04-18T04:31:46.336Z,30.29
2023-04-18T04:32:49.708Z,29.74
2023-04-18T04:33:53.404Z,30.39
2023-04-18T04:34:57.616Z,30.25
2023-04-18T04:36:01.689Z,30.32
2023-04-18T04:37:04.482Z,30.29
2023-04-18T04:38:08.654Z,29.97
2023-04-18T04:39:11.898Z,30.31
2023-04-18T04:40:16.360Z,30.37
2023-04-18T04:41:19.171Z,30.33
2023-04-18T04:42:25.528Z,30.39
2023-04-18T04:43:28.934Z,30.29
2023-04-18T04:44:33.132Z,30.66
2023-04-18T04:45:36.507Z,30.79
2023-04-18T04:46:42.372Z,30.74
2023-04-18T04:47:45.249Z,30.67
2023-04-18T04:48:49.855Z,30.83
2023-04-18T04:49:52.654Z,30.73
2023-04-18T04:50:59.483Z,30.58
2023-04-18T04:52:03.746Z,30.65
2023-04-18T04:53:07.842Z,30.21
2023-04-18T04:54:10.592Z,30.11
2023-04-18T04:55:14.304Z,29.92
2023-04-18T04:56:17.230Z,29.13
2023-04-18T04:57:20.966Z,29.15
2023-04-18T04:58:24.077Z,29.07
2023-04-18T04:59:27.679Z,28.90
2023-04-18T05:00:30.592Z,28.56
2023-04-18T05:01:34.228Z,28.32
2023-04-18T05:02:37.138Z,27.77
2023-04-18T05:03:41.364Z,27.57
2023-04-18T05:04:44.079Z,27.73
2023-04-18T05:05:47.754Z,27.37
2023-04-18T05:06:53.227Z,27.78
2023-04-18T05:07:55.851Z,27.45
2023-04-18T05:09:01.263Z,27.40
2023-04-18T05:10:04.503Z,27.64
2023-04-18T05:11:08.434Z,27.46
2023-04-18T05:12:10.695Z,27.51
2023-04-18T05:13:14.375Z,27.79
2023-04-18T05:14:18.049Z,27.79
2023-04-18T05:15:21.714Z,27.79
2023-04-18T05:16:24.314Z,27.77
2023-04-18T05:17:28.079Z,27.69
2023-04-18T05:18:30.418Z,27.38
2023-04-18T05:19:34.608Z,27.76
2023-04-18T05:20:37.249Z,27.53
2023-04-18T05:21:41.123Z,27.48
2023-04-18T05:22:45.385Z,27.39
2023-04-18T05:23:52.691Z,27.69
2023-04-18T05:24:55.622Z,27.69
2023-04-18T05:25:59.241Z,27.84
2023-04-18T05:27:02.212Z,27.96
2023-04-18T05:28:06.005Z,27.88
2023-04-18T05:29:09.759Z,28.18
2023-04-18T05:30:12.733Z,28.37
2023-04-18T05:31:16.499Z,27.95
2023-04-18T05:32:18.824Z,27.23
2023-04-18T05:33:22.021Z,26.56
2023-04-18T05:34:24.651Z,26.67
2023-04-18T05:35:28.501Z,26.19
2023-04-18T05:36:32.064Z,26.29
2023-04-18T05:37:35.479Z,25.74
2023-04-18T05:38:39.473Z,25.52
2023-04-18T05:39:43.657Z,25.75
2023-04-18T05:40:46.278Z,25.68
2023-04-18T05:41:50.084Z,25.86
2023-04-18T05:42:52.207Z,25.83
2023-04-18T05:44:04.895Z,25.65
2023-04-18T05:45:10.398Z,25.81
2023-04-18T05:46:13.168Z,25.89
2023-04-18T05:47:17.837Z,25.78
2023-04-18T05:48:25.936Z,25.97
2023-04-18T05:49:31.324Z,26.07
2023-04-18T05:50:36.042Z,26.02
2023-04-18T05:51:40.118Z,26.21
2023-04-18T05:52:45.257Z,26.59
2023-04-18T05:53:55.455Z,26.95
2023-04-18T05:54:59.221Z,26.78
2023-04-18T05:56:01.928Z,27.00
2023-04-18T05:57:05.751Z,26.97
2023-04-18T05:58:08.333Z,27.40
2023-04-18T05:59:12.253Z,27.00
2023-04-18T06:00:17.412Z,27.41
2023-04-18T06:01:21.618Z,27.26
2023-04-18T06:02:25.090Z,27.43
2023-04-18T06:03:29.002Z,27.54
2023-04-18T06:04:32.013Z,27.01
2023-04-18T06:05:36.093Z,27.29
2023-04-18T06:06:40.277Z,27.32
2023-04-18T06:07:43.583Z,27.51
2023-04-18T06:08:47.270Z,27.40
2023-04-18T06:09:53.505Z,27.11
2023-04-18T06:10:57.172Z,27.40
2023-04-18T06:12:00.160Z,27.71
2023-04-18T06:13:04.289Z,27.59
2023-04-18T06:14:07.952Z,27.48
2023-04-18T06:15:12.883Z,27.41
2023-04-18T06:16:15.832Z,27.53
2023-04-18T06:17:19.580Z,27.63
2023-04-18T06:18:22.373Z,27.40
2023-04-18T06:19:25.993Z,26.73
2023-04-18T06:20:28.358Z,25.96
2023-04-18T06:21:31.799Z,26.79
2023-04-18T06:22:34.396Z,26.42
2023-04-18T06:23:38.775Z,26.35
2023-04-18T06:24:41.469Z,25.94
2023-04-18T06:25:46.901Z,26.02
2023-04-18T06:26:49.561Z,26.05
2023-04-18T06:27:53.467Z,25.98
2023-04-18T06:28:57.102Z,26.04
2023-04-18T06:30:00.872Z,25.66
2023-04-18T06:31:03.717Z,25.61
2023-04-18T06:32:07.984Z,24.87
2023-04-18T06:33:11.912Z,25.33
2023-04-18T06:34:16.259Z,25.25
2023-04-18T06:35:20.130Z,25.14
2023-04-18T06:36:22.839Z,25.00
2023-04-18T06:37:26.599Z,24.69
2023-04-18T06:38:30.399Z,24.44
2023-04-18T06:39:33.117Z,24.29
2023-04-18T06:40:36.906Z,24.50
2023-04-18T06:41:40.580Z,24.28
2023-04-18T06:42:44.580Z,24.00
2023-04-18T06:44:02.151Z,23.97
2023-04-18T06:45:08.219Z,23.91
2023-04-18T06:46:10.929Z,23.13
2023-04-18T06:47:14.728Z,23.40
2023-04-18T06:48:18.636Z,23.23
2023-04-18T06:49:26.097Z,23.21
2023-04-18T06:50:30.836Z,23.44
2023-04-18T06:51:34.504Z,22.89
2023-04-18T06:52:40.894Z,22.96
2023-04-18T06:53:46.052Z,22.75
2023-04-18T06:54:48.829Z,22.91
2023-04-18T06:55:52.607Z,23.02
2023-04-18T06:56:58.086Z,22.42
2023-04-18T06:58:00.961Z,22.68
2023-04-18T06:59:04.682Z,22.94
2023-04-18T07:00:09.049Z,22.89
2023-04-18T07:01:11.754Z,22.89
2023-04-18T07:02:15.763Z,22.66
2023-04-18T07:03:18.741Z,22.52
2023-04-18T07:04:22.684Z,22.43
2023-04-18T07:05:26.537Z,22.17
2023-04-18T07:06:29.356Z,22.18
2023-04-18T07:07:33.249Z,22.65
2023-04-18T07:08:36.207Z,22.50
2023-04-18T07:09:39.731Z,22.12
2023-04-18T07:10:43.151Z,22.51
2023-04-18T07:11:45.853Z,22.40
2023-04-18T07:12:51.160Z,22.45
2023-04-18T07:13:53.907Z,22.27
2023-04-18T07:14:57.630Z,21.85
2023-04-18T07:16:01.645Z,21.72
2023-04-18T07:17:06.365Z,21.28
2023-04-18T07:18:09.494Z,21.66
2023-04-18T07:19:13.157Z,21.68
2023-04-18T07:20:17.045Z,21.78
2023-04-18T07:21:20.903Z,21.88
2023-04-18T07:22:24.786Z,21.83
2023-04-18T07:23:27.306Z,21.77
2023-04-18T07:24:31.508Z,21.97
2023-04-18T07:25:35.335Z,22.02
2023-04-18T07:26:39.768Z,22.03
2023-04-18T07:27:42.364Z,21.75
2023-04-18T07:28:47.722Z,21.85
2023-04-18T07:29:51.416Z,21.81
2023-04-18T07:30:55.621Z,21.86
2023-04-18T07:31:59.425Z,21.50
2023-04-18T07:33:03.403Z,21.48
2023-04-18T07:34:07.219Z,21.12
2023-04-18T07:35:12.052Z,21.30
2023-04-18T07:36:14.647Z,21.44
2023-04-18T07:37:19.211Z,21.38
2023-04-18T07:38:21.892Z,21.19
2023-04-18T07:39:25.850Z,20.86
2023-04-18T07:40:29.492Z,21.22
2023-04-18T07:41:33.565Z,20.85
2023-04-18T07:42:36.116Z,20.42
2023-04-18T07:43:40.815Z,20.67
2023-04-18T07:44:44.929Z,20.66
2023-04-18T07:45:48.756Z,20.50
2023-04-18T07:46:52.393Z,20.46
2023-04-18T07:47:56.995Z,20.14
2023-04-18T07:49:02.504Z,19.77
2023-04-18T07:50:06.253Z,20.25
2023-04-18T07:51:09.919Z,20.22
2023-04-18T07:52:13.730Z,20.16
2023-04-18T07:53:16.342Z,20.11
2023-04-18T07:54:20.277Z,20.08
2023-04-18T07:55:24.033Z,19.83
2023-04-18T07:56:27.840Z,19.66
2023-04-18T07:57:30.379Z,19.63
2023-04-18T07:58:36.329Z,19.83
2023-04-18T07:59:40.748Z,19.75
2023-04-18T08:00:45.863Z,19.88
2023-04-18T08:01:51.010Z,19.93
2023-04-18T08:02:54.822Z,19.52
2023-04-18T08:04:02.063Z,20.09
2023-04-18T08:05:06.933Z,19.75
2023-04-18T08:06:10.053Z,20.03
2023-04-18T08:07:14.142Z,20.16
2023-04-18T08:08:18.562Z,20.21
2023-04-18T08:09:22.013Z,19.78
2023-04-18T08:10:25.873Z,19.76
2023-04-18T08:11:28.537Z,18.83
2023-04-18T08:12:32.228Z,18.39
2023-04-18T08:13:35.294Z,18.68
2023-04-18T08:14:38.935Z,18.91
2023-04-18T08:15:43.030Z,19.11
2023-04-18T08:16:48.326Z,19.12
2023-04-18T08:17:51.747Z,19.09
2023-04-18T08:18:55.442Z,18.97
2023-04-18T08:19:58.419Z,18.83
2023-04-18T08:21:02.302Z,18.54
2023-04-18T08:22:12.496Z,18.45
2023-04-18T08:23:16.325Z,18.26
2023-04-18T08:24:20.179Z,18.03
2023-04-18T08:25:23.936Z,17.87
2023-04-18T08:26:27.904Z,18.56
2023-04-18T08:27:31.611Z,18.26
2023-04-18T08:28:35.475Z,18.06
2023-04-18T08:29:39.220Z,18.17
2023-04-18T08:30:42.637Z,17.91
2023-04-18T08:31:48.080Z,18.33
2023-04-18T08:32:51.101Z,17.86
2023-04-18T08:33:54.717Z,17.69
2023-04-18T08:34:58.551Z,17.64
2023-04-18T08:36:01.194Z,17.83
2023-04-18T08:37:04.996Z,17.71
2023-04-18T08:38:09.030Z,17.69
2023-04-18T08:39:12.061Z,18.10
2023-04-18T08:40:15.982Z,18.22
2023-04-18T08:41:23.527Z,18.16
2023-04-18T08:42:27.888Z,18.42
2023-04-18T08:43:31.539Z,18.12
2023-04-18T08:44:35.464Z,18.34
2023-04-18T08:45:38.755Z,18.20
2023-04-18T08:46:42.672Z,18.37
2023-04-18T08:47:48.084Z,18.34
2023-04-18T08:48:53.225Z,18.27
2023-04-18T08:49:56.056Z,17.97
2023-04-18T08:51:02.425Z,17.97
2023-04-18T08:52:11.420Z,18.27
2023-04-18T08:53:18.101Z,18.29
2023-04-18T08:54:22.693Z,18.19
2023-04-18T08:55:26.565Z,18.48
2023-04-18T08:56:29.258Z,18.46
2023-04-18T08:57:33.701Z,18.41
2023-04-18T08:58:37.523Z,18.41
2023-04-18T08:59:43.210Z,19.13
2023-04-18T09:00:51.944Z,19.57
2023-04-18T09:01:57.244Z,18.96
2023-04-18T09:03:04.153Z,19.52
2023-04-18T09:04:08.240Z,19.59
2023-04-18T09:05:15.623Z,19.74
2023-04-18T09:06:19.444Z,19.68
2023-04-18T09:07:31.489Z,19.51
2023-04-18T09:08:35.624Z,19.63
2023-04-18T09:09:48.500Z,19.84
2023-04-18T09:10:52.916Z,19.58
2023-04-18T09:12:08.699Z,19.57
2023-04-18T09:13:12.700Z,19.39
2023-04-18T09:14:24.882Z,18.92
2023-04-18T09:15:31.477Z,18.67
2023-04-18T09:16:48.321Z,19.12
2023-04-18T09:17:54.121Z,18.95
2023-04-18T09:19:14.000Z,19.25
2023-04-18T09:20:35.183Z,19.39
2023-04-18T09:21:40.555Z,19.30
2023-04-18T09:22:50.748Z,19.51
2023-04-18T09:24:17.788Z,19.53
2023-04-18T09:25:29.618Z,19.26
2023-04-18T09:26:36.649Z,19.48
2023-04-18T09:27:40.534Z,19.42
2023-04-18T09:28:54.729Z,19.55
2023-04-18T09:29:58.848Z,19.67
2023-04-18T09:31:12.289Z,19.80
2023-04-18T09:32:25.588Z,19.46
2023-04-18T09:33:32.734Z,19.49
2023-04-18T09:34:42.833Z,19.40
2023-04-18T09:35:47.426Z,19.28
2023-04-18T09:37:08.059Z,19.17
2023-04-18T09:38:11.820Z,19.14
2023-04-18T09:39:29.903Z,19.29
2023-04-18T09:40:34.422Z,19.50
2023-04-18T09:41:37.197Z,19.46
2023-04-18T09:42:41.280Z,19.25
2023-04-18T09:43:47.511Z,19.36
2023-04-18T09:45:03.906Z,19.72
2023-04-18T09:46:11.449Z,19.45
2023-04-18T09:47:16.758Z,19.46
2023-04-18T09:48:20.432Z,19.94
2023-04-18T09:49:23.049Z,20.10
2023-04-18T09:50:31.528Z,20.15
2023-04-18T09:51:35.280Z,20.11
2023-04-18T09:52:39.290Z,19.95
2023-04-18T09:54:04.953Z,19.26
2023-04-18T09:55:11.545Z,19.89
2023-04-18T09:56:21.508Z,19.16
2023-04-18T09:57:27.959Z,18.80
2023-04-18T09:58:34.353Z,19.06
2023-04-18T09:59:44.947Z,19.30
2023-04-18T10:00:49.273Z,19.46
2023-04-18T10:01:53.888Z,19.52
2023-04-18T10:03:00.246Z,19.40
2023-04-18T10:04:12.373Z,19.17
2023-04-18T10:05:21.225Z,19.12
2023-04-18T10:06:30.487Z,18.80
2023-04-18T10:07:37.815Z,18.74
2023-04-18T10:08:42.239Z,18.35
2023-04-18T10:09:47.384Z,18.52
2023-04-18T10:10:51.601Z,19.14
2023-04-18T10:11:56.192Z,19.11
2023-04-18T10:13:04.087Z,18.39
2023-04-18T10:14:10.366Z,18.26
2023-04-18T10:15:15.947Z,18.22
2023-04-18T10:16:21.162Z,18.26
2023-04-18T10:17:24.586Z,18.24
2023-04-18T10:18:28.422Z,18.35
2023-04-18T10:19:31.122Z,18.67
2023-04-18T10:20:36.303Z,18.42
2023-04-18T10:21:51.878Z,18.61
2023-04-18T10:22:57.188Z,18.74
2023-04-18T10:24:02.438Z,18.63
2023-04-18T10:25:07.143Z,18.66
2023-04-18T10:26:11.643Z,18.66
2023-04-18T10:27:14.274Z,18.58
2023-04-18T10:28:19.314Z,18.66
2023-04-18T10:29:50.568Z,18.22
2023-04-18T10:31:03.966Z,18.33
2023-04-18T10:32:07.011Z,18.35
2023-04-18T10:33:30.502Z,18.07
2023-04-18T10:34:38.863Z,18.22
2023-04-18T10:35:57.076Z,18.25
2023-04-18T10:37:08.892Z,18.26
2023-04-18T10:38:18.670Z,18.20
2023-04-18T10:39:25.712Z,17.90
2023-04-18T10:40:34.235Z,18.17
2023-04-18T10:41:51.104Z,18.36
2023-04-18T10:43:00.127Z,18.39
2023-04-18T10:44:18.639Z,18.24
2023-04-18T10:45:24.092Z,18.32
2023-04-18T10:46:32.338Z,18.11
2023-04-18T10:47:37.291Z,18.55
2023-04-18T10:48:40.254Z,18.08
2023-04-18T10:49:56.308Z,18.23
2023-04-18T10:51:18.889Z,18.19
2023-04-18T10:52:23.053Z,18.14
2023-04-18T10:53:27.096Z,18.20
2023-04-18T10:54:36.228Z,18.19
2023-04-18T10:55:46.040Z,18.23
2023-04-18T10:56:58.365Z,17.96
2023-04-18T10:58:02.764Z,18.42
2023-04-18T10:59:07.981Z,18.13
2023-04-18T11:00:14.279Z,18.84
2023-04-18T11:01:31.728Z,18.64
2023-04-18T11:02:35.659Z,18.53
2023-04-18T11:03:41.961Z,18.59
2023-04-18T11:04:50.279Z,18.81
2023-04-18T11:06:03.392Z,18.78
2023-04-18T11:07:07.899Z,19.06
2023-04-18T11:08:25.810Z,18.29
2023-04-18T11:09:28.556Z,18.05
2023-04-18T11:10:32.284Z,17.89
2023-04-18T11:11:35.208Z,17.96
2023-04-18T11:12:40.074Z,18.21
2023-04-18T11:14:04.020Z,18.09
2023-04-18T11:15:12.875Z,18.08
2023-04-18T11:16:29.085Z,18.24
2023-04-18T11:17:36.237Z,18.21
2023-04-18T11:18:42.749Z,18.77
2023-04-18T11:19:47.520Z,18.97
2023-04-18T11:20:53.931Z,18.67
2023-04-18T11:22:05.537Z,18.58
2023-04-18T11:23:18.465Z,18.19
2023-04-18T11:24:25.885Z,18.43
2023-04-18T11:25:32.238Z,18.82
2023-04-18T11:26:51.790Z,18.27
2023-04-18T11:27:56.924Z,18.21
2023-04-18T11:29:04.882Z,18.58
2023-04-18T11:30:15.333Z,18.54
2023-04-18T11:31:24.196Z,18.85
2023-04-18T11:32:27.217Z,19.25
2023-04-18T11:33:31.553Z,19.44
2023-04-18T11:34:34.507Z,19.12
2023-04-18T11:35:42.043Z,19.03
2023-04-18T11:36:48.784Z,19.42
2023-04-18T11:37:52.565Z,19.02
2023-04-18T11:38:57.801Z,18.62
2023-04-18T11:40:05.253Z,18.78
2023-04-18T11:41:14.113Z,18.72
2023-04-18T11:42:17.856Z,18.35
2023-04-18T11:43:23.600Z,17.98
2023-04-18T11:44:27.959Z,18.03
2023-04-18T11:45:31.961Z,18.20
2023-04-18T11:46:39.022Z,18.36
2023-04-18T11:47:44.322Z,18.03
2023-04-18T11:48:50.392Z,17.88
2023-04-18T11:50:01.133Z,17.83
2023-04-18T11:51:04.853Z,17.96
2023-04-18T11:52:13.024Z,18.12
2023-04-18T11:53:17.259Z,18.11
2023-04-18T11:54:41.424Z,17.98
2023-04-18T11:55:56.216Z,17.95
2023-04-18T11:57:03.519Z,17.90
2023-04-18T11:58:07.687Z,17.67
2023-04-18T11:59:10.766Z,17.52
2023-04-18T12:00:19.463Z,17.91
2023-04-18T12:01:24.021Z,17.66
2023-04-18T12:02:29.522Z,17.95
2023-04-18T12:03:34.718Z,17.69
2023-04-18T12:04:54.437Z,17.92
2023-04-18T12:06:02.792Z,18.29
2023-04-18T12:07:05.970Z,17.75
2023-04-18T12:08:11.631Z,17.75
2023-04-18T12:09:15.816Z,18.45
2023-04-18T12:10:31.180Z,17.84
2023-04-18T12:11:35.692Z,17.99
2023-04-18T12:12:39.561Z,18.12
2023-04-18T12:13:42.323Z,17.54
2023-04-18T12:14:47.805Z,17.73
2023-04-18T12:15:54.570Z,17.90
2023-04-18T12:16:57.553Z,17.96
2023-04-18T12:18:02.937Z,18.11
2023-04-18T12:19:06.799Z,18.18
2023-04-18T12:20:14.209Z,18.00
2023-04-18T12:21:18.984Z,17.91
2023-04-18T12:22:37.927Z,18.07
2023-04-18T12:23:43.088Z,18.41
2023-04-18T12:24:47.924Z,18.42
2023-04-18T12:26:00.777Z,18.36
2023-04-18T12:27:06.450Z,18.47
2023-04-18T12:28:17.145Z,18.58
2023-04-18T12:29:19.790Z,18.80
2023-04-18T12:30:27.554Z,18.78
2023-04-18T12:31:32.632Z,18.72
2023-04-18T12:32:36.684Z,18.95
2023-04-18T12:33:45.085Z,19.04
2023-04-18T12:34:49.014Z,18.96
2023-04-18T12:35:58.148Z,18.99
2023-04-18T12:37:01.197Z,19.24
2023-04-18T12:38:05.058Z,19.27
2023-04-18T12:39:08.302Z,19.20
2023-04-18T12:40:13.915Z,19.07
2023-04-18T12:41:17.769Z,19.06
2023-04-18T12:42:25.110Z,19.51
2023-04-18T12:43:32.146Z,19.35
2023-04-18T12:44:38.197Z,19.91
2023-04-18T12:45:49.399Z,19.89
2023-04-18T12:46:53.232Z,19.49
2023-04-18T12:47:57.214Z,19.60
2023-04-18T12:49:03.525Z,19.58
2023-04-18T12:50:10.719Z,19.40
2023-04-18T12:51:15.353Z,19.36
2023-04-18T12:52:17.901Z,19.43
2023-04-18T12:53:21.664Z,19.34
2023-04-18T12:54:26.184Z,19.33
2023-04-18T12:55:30.304Z,19.59
2023-04-18T12:56:34.158Z,19.57
2023-04-18T12:57:39.764Z,19.76
2023-04-18T12:58:43.512Z,19.51
2023-04-18T12:59:46.244Z,19.91
2023-04-18T13:00:50.056Z,19.88
2023-04-18T13:01:52.671Z,19.93
2023-04-18T13:02:56.609Z,19.67
2023-04-18T13:04:10.880Z,19.74
2023-04-18T13:05:18.415Z,19.84
2023-04-18T13:06:22.138Z,19.57
2023-04-18T13:07:25.072Z,19.93
2023-04-18T13:08:28.815Z,20.03
2023-04-18T13:09:31.742Z,20.11
2023-04-18T13:10:35.827Z,20.11
2023-04-18T13:11:38.458Z,20.30
2023-04-18T13:12:43.636Z,19.88
2023-04-18T13:13:46.937Z,19.86
2023-04-18T13:14:50.623Z,19.88
2023-04-18T13:15:53.473Z,19.97
2023-04-18T13:16:57.201Z,19.76
2023-04-18T13:18:05.141Z,20.12
2023-04-18T13:19:08.938Z,20.12
2023-04-18T13:20:13.161Z,19.90
2023-04-18T13:21:17.170Z,20.00
2023-04-18T13:22:21.009Z,20.25
2023-04-18T13:23:24.336Z,19.97
2023-04-18T13:24:27.025Z,20.22
2023-04-18T13:25:30.778Z,20.40
2023-04-18T13:26:36.681Z,20.37
2023-04-18T13:27:42.797Z,20.07
2023-04-18T13:28:45.357Z,20.54
2023-04-18T13:29:49.066Z,20.48
2023-04-18T13:30:52.323Z,20.56
2023-04-18T13:31:55.133Z,20.41
2023-04-18T13:32:59.024Z,20.44
2023-04-18T13:34:01.668Z,20.57
2023-04-18T13:35:07.867Z,20.46
2023-04-18T13:36:12.164Z,20.79
2023-04-18T13:37:17.064Z,20.97
2023-04-18T13:38:19.622Z,21.20
2023-04-18T13:39:24.649Z,20.88
2023-04-18T13:40:28.199Z,21.01
2023-04-18T13:41:31.032Z,20.95
2023-04-18T13:42:35.954Z,20.51
2023-04-18T13:43:40.189Z,20.98
2023-04-18T13:44:43.857Z,20.96
2023-04-18T13:45:46.705Z,20.98
2023-04-18T13:46:50.360Z,20.70
2023-04-18T13:47:54.474Z,20.84
2023-04-18T13:48:57.157Z,21.03
2023-04-18T13:50:00.912Z,20.98
2023-04-18T13:51:03.707Z,20.71
2023-04-18T13:52:07.501Z,20.87
2023-04-18T13:53:10.449Z,21.03
2023-04-18T13:54:16.626Z,21.05
2023-04-18T13:55:20.566Z,20.65
2023-04-18T13:56:23.476Z,21.13